Time;durP1;ratioP1;P1;durP2;ratioP2;P2;SDS_P1;SDS_P2;PMS_P1;PMS_P2;Temp;Humidity;BMP_temperature;BMP_pressure;BME280_temperature;BME280_humidity;BME280_pressure;Samples;Min_cycle;Max_cycle;Signal;HPM_P1;HPM_P2
2024/02/09 00:00:56;;;;;;;12.55;3.10;;;;;;;8.54;100.00;90989.25;2106737;28;20028;-81
2024/02/09 00:01:57;;;;;;;8.15;3.80;;;;;;;8.42;100.00;90989.47;2115543;27;20027;-79
2024/02/09 00:03:00;;;;;;;8.25;3.20;;;;;;;8.65;100.00;90995.97;2123537;27;20023;-80
2024/02/09 00:04:01;;;;;;;10.98;3.53;;;;;;;8.62;100.00;90996.91;2118858;27;20027;-81
2024/02/09 00:05:05;;;;;;;6.03;3.10;;;;;;;8.82;100.00;90991.69;2106721;28;20031;-81
2024/02/09 00:06:06;;;;;;;5.93;3.08;;;;;;;8.83;100.00;90993.19;2118702;27;20114;-80
2024/02/09 00:07:07;;;;;;;9.45;3.33;;;;;;;8.64;100.00;90992.56;2131183;27;20631;-79
2024/02/09 00:08:13;;;;;;;6.05;3.58;;;;;;;8.76;100.00;90996.19;2129436;27;20034;-80
2024/02/09 00:09:14;;;;;;;10.05;3.35;;;;;;;8.85;100.00;90992.72;2122924;27;20501;-80
2024/02/09 00:10:18;;;;;;;10.43;3.40;;;;;;;8.75;100.00;90997.41;2119760;27;20032;-79
2024/02/09 00:11:21;;;;;;;14.38;3.72;;;;;;;8.75;100.00;90994.72;2116517;27;20023;-81
2024/02/09 00:12:22;;;;;;;6.65;2.90;;;;;;;8.73;100.00;90997.81;2103936;27;20395;-80
2024/02/09 00:13:23;;;;;;;5.97;3.00;;;;;;;8.73;100.00;91005.09;2107140;28;20035;-80
2024/02/09 00:14:27;;;;;;;7.13;3.72;;;;;;;8.73;100.00;91003.16;2115018;27;20035;-81
2024/02/09 00:15:28;;;;;;;8.77;3.38;;;;;;;8.78;100.00;90997.22;2110706;27;20036;-81
2024/02/09 00:16:31;;;;;;;6.13;3.13;;;;;;;8.90;100.00;91002.75;2116308;27;20019;-80
2024/02/09 00:17:33;;;;;;;7.72;2.85;;;;;;;8.90;100.00;90994.75;2127753;27;20026;-80
2024/02/09 00:18:35;;;;;;;4.18;2.55;;;;;;;8.91;100.00;90991.66;2123320;27;20022;-80
2024/02/09 00:19:36;;;;;;;5.47;2.90;;;;;;;8.86;100.00;90992.25;2123383;27;20019;-80
2024/02/09 00:20:37;;;;;;;8.88;2.95;;;;;;;8.89;100.00;90999.34;2119337;27;20027;-80
2024/02/09 00:21:38;;;;;;;6.30;3.28;;;;;;;8.72;100.00;91007.00;2118706;27;20107;-80
2024/02/09 00:22:39;;;;;;;7.40;2.78;;;;;;;8.73;100.00;91010.41;2106386;28;20028;-80
2024/02/09 00:23:40;;;;;;;8.55;2.90;;;;;;;8.78;100.00;91001.78;2106522;28;20020;-80
2024/02/09 00:24:42;;;;;;;6.75;2.90;;;;;;;8.82;100.00;91016.44;2115743;27;20043;-80
2024/02/09 00:25:43;;;;;;;6.90;3.50;;;;;;;8.67;100.00;91009.59;2123559;27;20023;-80
2024/02/09 00:26:44;;;;;;;8.70;3.22;;;;;;;8.68;100.00;91003.06;2123494;27;20026;-79
2024/02/09 00:27:45;;;;;;;6.90;3.40;;;;;;;8.71;100.00;91012.81;2123559;27;20034;-80
2024/02/09 00:28:46;;;;;;;7.15;3.63;;;;;;;8.80;100.00;91004.75;2117212;27;20499;-79
2024/02/09 00:29:47;;;;;;;5.85;3.10;;;;;;;8.85;100.00;91008.72;2123181;27;20795;-80
2024/02/09 00:30:48;;;;;;;5.75;3.03;;;;;;;9.01;100.00;90997.63;2115096;27;20574;-80
2024/02/09 00:31:52;;;;;;;6.18;3.05;;;;;;;8.91;100.00;91002.31;2116870;27;20020;-78
2024/02/09 00:32:53;;;;;;;6.57;3.30;;;;;;;8.99;100.00;91003.41;2115019;27;20030;-80
2024/02/09 00:33:54;;;;;;;7.88;3.50;;;;;;;8.94;100.00;90996.03;2114874;27;20027;-80
2024/02/09 00:34:55;;;;;;;5.40;3.15;;;;;;;8.97;100.00;91003.13;2114625;28;20363;-80
2024/02/09 00:35:56;;;;;;;6.97;3.22;;;;;;;8.97;100.00;91000.47;2111131;28;20400;-78
2024/02/09 00:36:59;;;;;;;9.73;2.95;;;;;;;8.90;100.00;90998.16;2112692;28;20042;-79
2024/02/09 00:38:00;;;;;;;9.32;3.70;;;;;;;8.93;100.00;90991.91;2115168;27;20043;-78
2024/02/09 00:39:05;;;;;;;5.65;3.30;;;;;;;8.74;100.00;91001.97;2126414;27;20027;-81
2024/02/09 00:40:06;;;;;;;6.75;3.10;;;;;;;8.88;100.00;90989.88;2116697;27;20456;-80
2024/02/09 00:41:11;;;;;;;5.60;3.00;;;;;;;8.82;100.00;90997.78;2111528;27;20027;-79
2024/02/09 00:42:12;;;;;;;5.05;3.03;;;;;;;8.80;100.00;91002.09;2111691;27;20023;-79
2024/02/09 00:43:15;;;;;;;7.85;3.65;;;;;;;8.86;100.00;90999.53;2116294;27;20047;-79
2024/02/09 00:44:17;;;;;;;3.90;3.05;;;;;;;8.89;100.00;90994.03;2039198;27;20031;-79
2024/02/09 00:45:19;;;;;;;7.53;3.50;;;;;;;8.78;100.00;90996.47;2038735;27;20214;-77
2024/02/09 00:46:21;;;;;;;8.80;3.47;;;;;;;8.85;100.00;90993.47;2048083;27;20031;-78
2024/02/09 00:47:22;;;;;;;7.40;3.17;;;;;;;8.96;100.00;90988.34;2047304;27;20356;-79
2024/02/09 00:48:23;;;;;;;8.50;3.50;;;;;;;8.80;100.00;90980.78;2067034;27;20667;-78
2024/02/09 00:49:24;;;;;;;10.77;3.40;;;;;;;8.89;100.00;90991.34;2061408;27;20246;-79
2024/02/09 00:50:25;;;;;;;6.88;3.33;;;;;;;8.94;100.00;90995.31;2057284;27;20646;-79
2024/02/09 00:51:26;;;;;;;5.82;3.22;;;;;;;8.74;100.00;90993.25;2074373;27;20030;-80
2024/02/09 00:52:27;;;;;;;5.25;3.22;;;;;;;8.87;100.00;90977.75;2085612;27;20510;-78
2024/02/09 00:53:28;;;;;;;10.43;3.70;;;;;;;8.92;100.00;90985.13;2093587;27;20023;-79
2024/02/09 00:54:29;;;;;;;9.70;3.58;;;;;;;9.05;100.00;90987.53;2090567;27;20333;-80
2024/02/09 00:55:31;;;;;;;5.57;3.53;;;;;;;9.21;100.00;90981.75;2092063;27;20458;-80
2024/02/09 00:56:32;;;;;;;5.75;2.70;;;;;;;9.17;100.00;90980.44;2100183;28;20066;-79
2024/02/09 00:57:34;;;;;;;8.13;3.28;;;;;;;8.54;100.00;90983.91;2119955;27;20480;-80
2024/02/09 00:58:35;;;;;;;9.80;3.63;;;;;;;8.94;100.00;90974.00;2114661;28;20036;-81
2024/02/09 00:59:39;;;;;;;5.43;3.30;;;;;;;9.06;100.00;90981.00;2099446;28;20488;-79
2024/02/09 01:00:42;;;;;;;7.07;3.60;;;;;;;8.89;100.00;90978.03;2115072;27;20045;-79
2024/02/09 01:01:43;;;;;;;9.48;3.15;;;;;;;8.87;100.00;90985.75;2106392;28;20028;-80
2024/02/09 01:02:45;;;;;;;5.00;3.00;;;;;;;8.91;100.00;90983.66;2114569;27;20593;-78
2024/02/09 01:03:46;;;;;;;5.18;3.13;;;;;;;9.07;100.00;90983.19;2114331;28;20467;-80
2024/02/09 01:04:47;;;;;;;4.05;3.00;;;;;;;9.03;100.00;90987.25;2114440;28;20031;-79
2024/02/09 01:05:50;;;;;;;10.35;3.53;;;;;;;8.98;100.00;90987.88;2097881;28;20107;-78
2024/02/09 01:06:51;;;;;;;6.15;2.95;;;;;;;9.18;100.00;90988.00;2114848;27;20065;-80
2024/02/09 01:07:52;;;;;;;8.00;3.13;;;;;;;9.19;100.00;90992.13;2118472;27;20106;-80
2024/02/09 01:08:53;;;;;;;5.38;2.83;;;;;;;9.22;100.00;90987.81;2122984;27;20031;-80
2024/02/09 01:09:56;;;;;;;8.48;3.22;;;;;;;9.15;100.00;90986.25;2114382;28;20024;-79
2024/02/09 01:10:57;;;;;;;5.15;3.65;;;;;;;9.11;100.00;90987.63;2114344;28;20059;-81
2024/02/09 01:11:58;;;;;;;4.97;3.67;;;;;;;9.06;100.00;90987.06;2106020;28;20023;-81
2024/02/09 02:45:21;;;;;;;3.20;2.90;;;;;;;8.13;100.00;90920.91;2120382;28;20027;-82
2024/02/09 02:46:22;;;;;;;2.78;2.55;;;;;;;8.16;100.00;90910.06;2121053;27;20095;-83
2024/02/09 02:47:23;;;;;;;5.03;2.70;;;;;;;8.27;100.00;90915.63;2112421;28;20020;-81
2024/02/09 03:04:18;;;;;;;2.90;1.45;;;;;;;8.90;100.00;90896.91;2111864;28;20028;-83
2024/02/09 03:05:20;;;;;;;3.45;0.95;;;;;;;8.96;100.00;90897.75;2120653;28;20030;-82
2024/02/09 03:06:22;;;;;;;1.45;0.93;;;;;;;8.90;100.00;90901.50;2120363;28;20434;-81
2024/02/09 03:07:25;;;;;;;2.78;0.90;;;;;;;8.77;100.00;90891.13;2112642;28;20134;-82
2024/02/09 03:08:26;;;;;;;2.42;0.77;;;;;;;8.71;100.00;90890.28;2112347;28;20024;-82
2024/02/09 03:09:26;;;;;;;1.88;0.73;;;;;;;8.90;100.00;90894.25;2112104;28;20103;-82
2024/02/09 03:10:29;;;;;;;1.23;0.80;;;;;;;8.76;100.00;90889.66;2112166;28;20051;-83
2024/02/09 03:11:30;;;;;;;1.80;0.70;;;;;;;8.83;100.00;90886.63;2112432;28;20050;-82
2024/02/09 03:12:32;;;;;;;1.80;0.60;;;;;;;8.84;100.00;90896.09;2120437;28;20119;-83
2024/02/09 03:13:33;;;;;;;2.20;0.88;;;;;;;8.66;100.00;90885.63;2119753;28;20031;-79
2024/02/09 03:14:36;;;;;;;2.15;0.68;;;;;;;8.69;100.00;90896.09;2120731;28;20104;-81
2024/02/09 03:15:37;;;;;;;1.60;0.68;;;;;;;8.69;100.00;90887.34;2112209;28;20028;-82
2024/02/09 03:16:38;;;;;;;1.83;0.80;;;;;;;8.67;100.00;90890.47;2103812;28;20017;-81
2024/02/09 03:17:39;;;;;;;5.47;1.27;;;;;;;8.54;100.00;90896.06;2103880;28;20052;-81
2024/02/09 03:18:40;;;;;;;2.22;0.95;;;;;;;8.52;100.00;90885.13;2108732;28;20031;-81
2024/02/09 03:19:42;;;;;;;2.10;0.60;;;;;;;8.49;100.00;90887.97;2120689;28;20130;-80
2024/02/09 03:20:44;;;;;;;1.55;0.75;;;;;;;8.62;100.00;90895.72;2120872;28;20490;-81
2024/02/09 03:21:45;;;;;;;1.63;0.90;;;;;;;8.63;100.00;90891.84;2120769;28;20027;-81
2024/02/09 03:22:46;;;;;;;0.88;0.70;;;;;;;8.56;100.00;90895.63;2122097;28;20035;-80
2024/02/09 03:23:47;;;;;;;4.13;0.90;;;;;;;8.67;100.00;90895.06;2113712;28;20047;-81
2024/02/09 03:24:48;;;;;;;1.20;0.57;;;;;;;8.89;100.00;90902.72;2113338;28;20824;-82
2024/02/09 03:25:50;;;;;;;1.55;0.80;;;;;;;8.90;100.00;90896.91;2120511;28;20043;-82
2024/02/09 03:26:51;;;;;;;1.25;0.63;;;;;;;8.93;100.00;90904.00;2121478;27;20061;-83
2024/02/09 03:27:52;;;;;;;2.08;0.75;;;;;;;8.91;100.00;90895.75;2121232;27;20023;-81
2024/02/09 03:28:52;;;;;;;1.27;0.68;;;;;;;8.96;100.00;90891.69;2120832;28;20028;-83
2024/02/09 03:29:54;;;;;;;1.90;0.80;;;;;;;8.91;100.00;90895.75;2112195;28;20051;-80
2024/02/09 03:30:55;;;;;;;2.58;0.95;;;;;;;9.07;100.00;90900.59;2109727;28;20567;-81
2024/02/09 03:31:56;;;;;;;0.63;0.50;;;;;;;9.03;100.00;90901.97;2107957;28;20808;-81
2024/02/09 03:32:57;;;;;;;2.03;0.65;;;;;;;8.95;100.00;90904.25;2103681;28;20078;-81
2024/02/09 03:33:58;;;;;;;3.13;0.90;;;;;;;8.88;100.00;90904.63;2111643;28;20524;-83
2024/02/09 03:35:05;;;;;;;1.60;0.73;;;;;;;8.94;100.00;90894.81;2099260;28;20036;-83
2024/02/09 03:36:20;;;;;;;2.50;0.60;;;;;;;8.98;100.00;90895.34;2112336;28;20020;-82
2024/02/09 03:37:24;;;;;;;0.80;0.65;;;;;;;8.96;100.00;90897.03;2108986;28;20033;-80
2024/02/09 03:38:26;;;;;;;2.10;0.80;;;;;;;8.90;100.00;90893.50;2098644;28;20055;-83
2024/02/09 03:39:27;;;;;;;0.70;0.50;;;;;;;8.85;100.00;90902.16;2099680;28;20048;-82
2024/02/09 03:40:28;;;;;;;2.17;0.70;;;;;;;8.87;100.00;90900.50;2106484;28;20085;-82
2024/02/09 03:41:30;;;;;;;1.25;0.70;;;;;;;8.46;100.00;90889.59;2098163;28;20162;-81
2024/02/09 03:42:31;;;;;;;1.77;0.60;;;;;;;8.60;100.00;90892.75;2097817;28;20020;-83
2024/02/09 03:43:32;;;;;;;2.22;0.98;;;;;;;8.58;100.00;90896.63;2106274;28;20024;-83
2024/02/09 03:44:33;;;;;;;1.60;0.63;;;;;;;8.70;100.00;90880.84;2098058;28;20444;-82
2024/02/09 03:45:34;;;;;;;1.40;0.60;;;;;;;8.75;100.00;90888.19;2099195;28;20020;-80
2024/02/09 03:46:35;;;;;;;2.80;0.80;;;;;;;8.84;100.00;90890.75;2111021;28;20015;-83
2024/02/09 03:47:36;;;;;;;2.35;0.90;;;;;;;8.89;100.00;90890.13;2115347;28;20019;-83
2024/02/09 03:48:37;;;;;;;2.45;0.70;;;;;;;8.76;100.00;90898.38;2114845;28;20376;-83
2024/02/09 03:49:38;;;;;;;1.48;0.70;;;;;;;8.93;100.00;90888.00;2106463;28;20024;-82
2024/02/09 03:50:39;;;;;;;1.55;0.55;;;;;;;8.95;100.00;90895.53;2106400;28;20024;-81
2024/02/09 03:51:40;;;;;;;0.73;0.52;;;;;;;8.92;100.00;90899.88;2114722;28;20092;-83
2024/02/09 03:52:44;;;;;;;1.65;0.80;;;;;;;9.14;100.00;90901.44;2114681;28;20027;-80
2024/02/09 03:53:45;;;;;;;1.80;0.70;;;;;;;9.20;100.00;90894.25;2106908;28;20083;-83
2024/02/09 03:54:52;;;;;;;1.02;0.60;;;;;;;8.99;100.00;90893.41;2106464;28;20024;-82
2024/02/09 03:55:55;;;;;;;1.33;0.70;;;;;;;8.94;100.00;90902.78;2114839;28;20023;-84
2024/02/09 03:56:57;;;;;;;1.38;0.50;;;;;;;8.97;100.00;90893.88;2114778;28;20047;-80
2024/02/09 03:57:58;;;;;;;0.98;0.60;;;;;;;8.93;100.00;90898.66;2114480;28;20019;-81
2024/02/09 03:58:59;;;;;;;2.50;0.70;;;;;;;8.78;100.00;90892.59;2114773;28;20024;-82
2024/02/09 04:00:00;;;;;;;3.55;0.55;;;;;;;8.90;100.00;90894.25;2114677;28;20333;-83
2024/02/09 04:01:05;;;;;;;2.55;0.73;;;;;;;8.91;100.00;90901.06;2105521;28;20511;-81
2024/02/09 04:02:07;;;;;;;1.95;0.70;;;;;;;8.81;100.00;90900.41;2106869;28;20028;-80
2024/02/09 04:03:08;;;;;;;1.00;0.60;;;;;;;8.85;100.00;90899.50;2114585;28;20019;-80
2024/02/09 04:04:09;;;;;;;1.73;0.70;;;;;;;8.72;100.00;90905.06;2111063;28;20031;-82
2024/02/09 04:05:10;;;;;;;1.50;0.70;;;;;;;8.68;100.00;90897.25;2106310;28;20061;-81
2024/02/09 04:06:11;;;;;;;1.08;0.57;;;;;;;8.71;100.00;90893.69;2097764;28;20028;-79
2024/02/09 04:07:20;;;;;;;0.85;0.70;;;;;;;8.66;100.00;90888.28;2106368;28;20464;-82
2024/02/09 04:08:21;;;;;;;1.88;0.80;;;;;;;8.71;100.00;90895.63;2102823;28;20028;-84
2024/02/09 04:09:22;;;;;;;2.88;0.82;;;;;;;8.52;100.00;90893.13;2097744;28;20489;-82
2024/02/09 04:10:23;;;;;;;2.88;0.80;;;;;;;8.64;100.00;90896.69;2097344;28;20024;-83
2024/02/09 04:11:28;;;;;;;1.50;0.90;;;;;;;8.60;100.00;90888.16;2097329;28;20051;-85
2024/02/09 04:12:30;;;;;;;3.05;0.90;;;;;;;8.52;100.00;90897.72;2101083;28;20035;-80
2024/02/09 04:13:31;;;;;;;1.83;1.00;;;;;;;8.57;100.00;90894.41;2106219;28;20024;-83
2024/02/09 04:14:32;;;;;;;1.15;1.05;;;;;;;8.56;100.00;90888.34;2106395;28;20032;-83
2024/02/09 04:15:33;;;;;;;1.42;1.10;;;;;;;8.66;100.00;90885.63;2099488;28;20468;-81
2024/02/09 04:16:34;;;;;;;4.20;1.48;;;;;;;8.75;100.00;90882.88;2097870;28;20029;-81
2024/02/09 04:17:35;;;;;;;2.15;1.42;;;;;;;8.57;100.00;90881.84;2097781;28;20020;-81
2024/02/09 04:18:36;;;;;;;2.00;1.35;;;;;;;8.52;100.00;90882.47;2114639;28;20061;-81
2024/02/09 04:19:40;;;;;;;1.48;1.10;;;;;;;8.60;100.00;90877.50;2115262;28;20094;-82
2024/02/09 04:20:41;;;;;;;3.35;1.10;;;;;;;8.58;100.00;90874.56;2114514;28;20035;-82
2024/02/09 04:21:47;;;;;;;3.10;1.25;;;;;;;8.64;100.00;90878.06;2097700;28;20036;-82
2024/02/09 04:22:50;;;;;;;2.03;1.33;;;;;;;8.46;100.00;90880.88;2106865;28;20070;-80
2024/02/09 04:23:54;;;;;;;3.20;0.90;;;;;;;8.64;100.00;90877.31;2115248;28;20020;-83
2024/02/09 04:24:57;;;;;;;1.83;0.70;;;;;;;8.64;100.00;90872.00;2115173;28;20087;-81
2024/02/09 04:25:59;;;;;;;3.35;1.00;;;;;;;8.57;100.00;90876.50;2115085;28;20055;-81
2024/02/09 04:27:00;;;;;;;1.67;0.90;;;;;;;8.53;100.00;90875.94;2114459;28;20038;-83
2024/02/09 04:28:04;;;;;;;3.13;0.80;;;;;;;8.59;100.00;90870.72;2114362;28;20451;-82
2024/02/09 04:29:05;;;;;;;1.48;0.75;;;;;;;8.67;100.00;90869.16;2114456;28;20027;-83
2024/02/09 04:30:06;;;;;;;0.90;0.60;;;;;;;8.60;100.00;90868.78;2105524;28;20030;-81
2024/02/09 04:31:07;;;;;;;2.85;1.08;;;;;;;8.53;100.00;90861.91;2088951;28;20458;-83
2024/02/09 04:32:08;;;;;;;1.70;0.60;;;;;;;8.59;100.00;90868.06;2097506;28;20037;-80
2024/02/09 04:33:09;;;;;;;2.15;0.70;;;;;;;8.71;100.00;90869.72;2114285;28;20020;-81
2024/02/09 04:34:13;;;;;;;3.22;1.45;;;;;;;8.73;100.00;90879.91;2114289;28;20027;-81
2024/02/09 04:35:15;;;;;;;2.70;0.70;;;;;;;8.58;100.00;90872.66;2114055;28;20023;-82
2024/02/09 04:36:17;;;;;;;0.65;0.52;;;;;;;8.56;100.00;90876.97;2105672;28;20074;-80
2024/02/09 04:37:21;;;;;;;0.52;0.52;;;;;;;8.69;100.00;90879.34;2097610;28;20768;-84
2024/02/09 04:38:24;;;;;;;2.97;0.57;;;;;;;8.74;100.00;90870.75;2114322;28;20088;-81
2024/02/09 04:39:25;;;;;;;3.25;0.77;;;;;;;8.66;100.00;90873.03;2114110;28;20376;-83
2024/02/09 04:40:27;;;;;;;2.95;0.60;;;;;;;8.65;100.00;90862.81;2106130;28;20024;-81
2024/02/09 04:41:28;;;;;;;0.65;0.40;;;;;;;8.67;100.00;90876.41;2105768;28;20048;-83
2024/02/09 04:42:29;;;;;;;1.02;0.50;;;;;;;8.63;100.00;90865.22;2105731;28;20097;-83
2024/02/09 04:43:29;;;;;;;1.85;0.63;;;;;;;8.57;100.00;90865.13;2114245;28;20039;-83
2024/02/09 04:44:33;;;;;;;0.65;0.30;;;;;;;8.68;100.00;90865.31;2114424;28;20050;-85
2024/02/09 04:45:34;;;;;;;1.27;0.60;;;;;;;8.71;100.00;90871.66;2114318;28;20039;-81
2024/02/09 04:46:35;;;;;;;0.63;0.40;;;;;;;8.78;100.00;90871.28;2105985;28;20031;-84
2024/02/09 04:47:36;;;;;;;0.47;0.40;;;;;;;8.70;100.00;90876.25;2105456;28;20032;-82
2024/02/09 04:48:39;;;;;;;1.05;0.60;;;;;;;8.74;100.00;90868.09;2105532;28;20016;-84
2024/02/09 04:49:44;;;;;;;0.52;0.50;;;;;;;8.60;100.00;90866.13;2113647;28;20053;-81
2024/02/09 04:50:46;;;;;;;0.55;0.50;;;;;;;8.52;100.00;90869.16;2114535;28;20027;-83
2024/02/09 04:51:48;;;;;;;1.33;0.88;;;;;;;8.46;100.00;90867.56;2114434;28;20102;-86
2024/02/09 04:52:49;;;;;;;1.63;0.60;;;;;;;8.42;100.00;90862.44;2105979;28;20016;-81
2024/02/09 04:53:51;;;;;;;2.17;0.50;;;;;;;8.44;100.00;90865.38;2097550;28;20040;-81
2024/02/09 04:54:52;;;;;;;0.40;0.30;;;;;;;8.40;100.00;90870.16;2097890;28;20095;-84
2024/02/09 04:55:53;;;;;;;1.33;0.50;;;;;;;8.37;100.00;90871.06;2107819;28;20099;-82
2024/02/09 04:56:54;;;;;;;0.98;0.50;;;;;;;8.40;100.00;90869.41;2105872;28;20070;-81
2024/02/09 04:57:55;;;;;;;0.32;0.30;;;;;;;8.35;100.00;90857.44;2097478;28;20032;-82
2024/02/09 04:59:00;;;;;;;1.60;0.40;;;;;;;8.31;100.00;90868.25;2114301;28;20031;-83
2024/02/09 05:00:01;;;;;;;0.60;0.55;;;;;;;8.37;100.00;90865.72;2114231;28;20027;-83
2024/02/09 05:01:02;;;;;;;1.70;0.77;;;;;;;8.40;100.00;90861.44;2098005;28;20497;-82
2024/02/09 05:02:03;;;;;;;0.73;0.43;;;;;;;8.34;100.00;90861.31;2096568;28;20020;-82
2024/02/09 05:03:04;;;;;;;1.73;0.50;;;;;;;8.42;100.00;90867.03;2094591;28;20036;-79
2024/02/09 05:04:10;;;;;;;0.55;0.55;;;;;;;8.42;100.00;90867.75;2089320;28;20067;-84
2024/02/09 05:05:11;;;;;;;0.50;0.50;;;;;;;8.38;100.00;90869.13;2104070;28;20074;-82
2024/02/09 05:06:12;;;;;;;2.78;0.55;;;;;;;8.32;100.00;90864.41;2113260;28;20081;-81
2024/02/09 05:07:14;;;;;;;0.73;0.60;;;;;;;8.35;100.00;90862.03;2114258;28;20480;-82
2024/02/09 05:08:15;;;;;;;2.30;0.50;;;;;;;8.38;100.00;90867.19;2113258;28;20023;-84
2024/02/09 05:09:29;;;;;;;0.82;0.52;;;;;;;8.40;100.00;90864.81;2111599;28;20030;-84
2024/02/09 05:10:30;;;;;;;1.15;0.55;;;;;;;8.54;100.00;90861.44;2114171;28;20463;-83
2024/02/09 05:11:36;;;;;;;2.50;1.02;;;;;;;8.55;100.00;90862.91;2105664;28;20032;-82
2024/02/09 05:12:37;;;;;;;0.77;0.50;;;;;;;8.44;100.00;90860.06;2104670;28;20026;-83
2024/02/09 05:13:38;;;;;;;0.55;0.30;;;;;;;8.46;100.00;90857.66;2104142;28;20086;-83
2024/02/09 05:14:39;;;;;;;1.30;0.60;;;;;;;8.40;100.00;90864.09;2109029;28;20983;-83
2024/02/09 05:15:40;;;;;;;1.00;0.52;;;;;;;8.38;100.00;90861.13;2105438;28;20443;-83
2024/02/09 05:16:41;;;;;;;2.47;0.63;;;;;;;8.35;100.00;90859.38;2105279;28;20444;-84
2024/02/09 05:17:41;;;;;;;2.05;0.52;;;;;;;8.41;100.00;90860.97;2104639;28;20028;-84
2024/02/09 05:18:43;;;;;;;1.23;0.40;;;;;;;8.36;100.00;90860.84;2114042;28;20605;-81
2024/02/09 05:19:44;;;;;;;0.68;0.68;;;;;;;8.32;100.00;90859.09;2113986;28;20451;-82
2024/02/09 05:20:49;;;;;;;0.73;0.50;;;;;;;8.52;100.00;90855.84;2114138;28;20086;-83
2024/02/09 05:21:50;;;;;;;0.70;0.70;;;;;;;8.35;100.00;90856.72;2106077;28;20504;-83
2024/02/09 05:22:51;;;;;;;0.85;0.52;;;;;;;8.40;100.00;90859.50;2097564;28;20021;-83
2024/02/09 05:23:52;;;;;;;0.43;0.43;;;;;;;8.48;100.00;90859.88;2097378;28;20028;-84
2024/02/09 05:24:52;;;;;;;1.58;0.60;;;;;;;8.62;100.00;90855.75;2097265;28;20048;-82
2024/02/09 05:25:53;;;;;;;0.88;0.50;;;;;;;8.69;100.00;90847.41;2096982;28;20033;-82
2024/02/09 05:26:55;;;;;;;0.82;0.45;;;;;;;8.65;100.00;90862.81;2105969;28;20042;-82
2024/02/09 05:27:56;;;;;;;1.83;0.60;;;;;;;8.47;100.00;90859.16;2105531;28;20078;-83
2024/02/09 05:28:57;;;;;;;1.02;0.60;;;;;;;8.45;100.00;90856.19;2105617;28;20028;-82
2024/02/09 05:29:58;;;;;;;1.08;0.70;;;;;;;8.53;100.00;90862.63;2105883;28;20350;-82
2024/02/09 05:30:59;;;;;;;0.73;0.73;;;;;;;8.41;100.00;90858.31;2111400;28;20034;-83
2024/02/09 05:32:00;;;;;;;2.95;0.60;;;;;;;8.37;100.00;90854.34;2114091;28;20051;-80
2024/02/09 05:33:04;;;;;;;3.05;0.50;;;;;;;8.47;100.00;90855.72;2098842;28;20024;-81
2024/02/09 05:34:07;;;;;;;0.52;0.50;;;;;;;8.35;100.00;90844.13;2099066;28;20031;-81
2024/02/09 05:35:08;;;;;;;0.82;0.73;;;;;;;8.40;100.00;90846.19;2098680;28;20090;-81
2024/02/09 05:36:20;;;;;;;0.95;0.50;;;;;;;8.36;100.00;90856.25;2096830;28;20034;-81
2024/02/09 05:37:23;;;;;;;2.22;0.40;;;;;;;8.39;100.00;90849.31;2106928;28;20093;-83
2024/02/09 05:38:23;;;;;;;2.25;0.65;;;;;;;8.41;100.00;90849.59;2114005;28;20019;-82
2024/02/09 05:39:24;;;;;;;0.50;0.40;;;;;;;8.38;100.00;90851.22;2113888;28;20031;-82
2024/02/09 05:40:25;;;;;;;2.35;0.60;;;;;;;8.53;100.00;90846.66;2105485;28;20016;-82
2024/02/09 05:41:26;;;;;;;1.10;0.60;;;;;;;8.41;100.00;90849.59;2113937;28;20083;-83
2024/02/09 05:42:27;;;;;;;1.65;0.82;;;;;;;8.47;100.00;90837.84;2104269;28;20404;-83
2024/02/09 05:43:29;;;;;;;1.25;0.50;;;;;;;8.53;100.00;90843.28;2113734;28;20028;-82
2024/02/09 05:44:30;;;;;;;1.00;0.82;;;;;;;8.54;100.00;90840.13;2113798;28;20430;-82
2024/02/09 05:45:34;;;;;;;2.00;0.60;;;;;;;8.48;100.00;90847.31;2105445;28;20024;-81
2024/02/09 05:46:35;;;;;;;0.40;0.40;;;;;;;8.49;100.00;90838.13;2096886;28;20012;-82
2024/02/09 05:47:36;;;;;;;0.88;0.52;;;;;;;8.53;100.00;90843.28;2091310;28;20032;-82
2024/02/09 05:48:38;;;;;;;0.85;0.50;;;;;;;8.42;100.00;90843.06;2105579;28;20028;-83
2024/02/09 05:49:39;;;;;;;1.33;0.55;;;;;;;8.35;100.00;90856.72;2105626;28;20108;-83
2024/02/09 05:50:40;;;;;;;2.38;0.57;;;;;;;8.38;100.00;90851.22;2105447;28;20543;-83
2024/02/09 05:51:40;;;;;;;1.08;0.60;;;;;;;8.33;100.00;90855.22;2105569;28;20032;-80
2024/02/09 05:52:41;;;;;;;1.67;0.60;;;;;;;8.37;100.00;90843.69;2105475;28;20047;-83
2024/02/09 05:53:43;;;;;;;1.90;0.85;;;;;;;8.42;100.00;90846.44;2105688;28;20123;-83
2024/02/09 05:54:44;;;;;;;2.17;0.45;;;;;;;8.33;100.00;90851.84;2105510;28;20032;-83
2024/02/09 05:55:45;;;;;;;3.90;0.63;;;;;;;8.46;100.00;90846.28;2105619;28;20377;-83
2024/02/09 05:56:48;;;;;;;0.55;0.40;;;;;;;8.44;100.00;90854.00;2113825;28;20030;-82
2024/02/09 05:57:54;;;;;;;1.50;0.60;;;;;;;8.39;100.00;90852.72;2105584;28;20020;-85
2024/02/09 05:58:56;;;;;;;0.50;0.50;;;;;;;8.50;100.00;90854.81;2106275;28;20107;-83
2024/02/09 05:59:58;;;;;;;1.67;0.52;;;;;;;8.53;100.00;90856.59;2105538;28;20020;-82
2024/02/09 06:00:59;;;;;;;1.10;0.50;;;;;;;8.51;100.00;90857.03;2104766;28;20077;-82
2024/02/09 06:02:00;;;;;;;0.80;0.52;;;;;;;8.44;100.00;90846.00;2105450;28;20044;-83
2024/02/09 06:03:02;;;;;;;0.93;0.68;;;;;;;8.49;100.00;90856.75;2113750;28;20027;-83
2024/02/09 06:04:03;;;;;;;1.35;0.80;;;;;;;8.54;100.00;90850.06;2113636;28;20549;-83
2024/02/09 06:05:04;;;;;;;1.13;0.63;;;;;;;8.38;100.00;90859.22;2113749;28;20098;-83
2024/02/09 06:06:06;;;;;;;0.85;0.52;;;;;;;8.38;100.00;90850.50;2113621;28;20118;-82
2024/02/09 06:07:07;;;;;;;3.00;0.60;;;;;;;8.47;100.00;90850.41;2113692;28;20058;-81
2024/02/09 06:08:10;;;;;;;4.32;0.60;;;;;;;8.47;100.00;90853.81;2097169;28;20031;-83
2024/02/09 06:09:11;;;;;;;3.80;0.98;;;;;;;8.53;100.00;90852.00;2097887;28;20083;-84
2024/02/09 06:10:13;;;;;;;0.45;0.40;;;;;;;8.43;100.00;90853.28;2105482;28;20432;-81
2024/02/09 06:11:15;;;;;;;0.85;0.85;;;;;;;8.44;100.00;90856.66;2110543;28;20023;-81
2024/02/09 06:12:17;;;;;;;1.27;0.73;;;;;;;8.60;100.00;90856.19;2103956;28;20028;-83
2024/02/09 06:13:18;;;;;;;0.60;0.60;;;;;;;8.55;100.00;90852.25;2105414;28;20044;-81
2024/02/09 06:14:19;;;;;;;0.82;0.50;;;;;;;8.53;100.00;90852.00;2097125;28;20070;-84
2024/02/09 06:15:20;;;;;;;1.73;0.70;;;;;;;8.43;100.00;90853.28;2105266;28;20035;-81
2024/02/09 06:16:22;;;;;;;1.10;0.60;;;;;;;8.49;100.00;90856.03;2105305;28;20027;-85
2024/02/09 06:17:24;;;;;;;2.25;0.60;;;;;;;8.58;100.00;90853.28;2099000;28;20031;-82
2024/02/09 06:18:27;;;;;;;2.95;0.70;;;;;;;8.52;100.00;90845.19;2105579;28;20063;-81
2024/02/09 06:19:28;;;;;;;1.20;0.80;;;;;;;8.53;100.00;90845.94;2100809;28;20084;-81
2024/02/09 06:20:30;;;;;;;0.90;0.50;;;;;;;8.56;100.00;90845.03;2103995;28;20026;-84
2024/02/09 06:21:31;;;;;;;3.22;0.73;;;;;;;8.51;100.00;90840.31;2109398;28;20019;-82
2024/02/09 06:22:32;;;;;;;1.77;0.60;;;;;;;8.47;100.00;90842.41;2108547;28;20023;-82
2024/02/09 06:23:34;;;;;;;2.17;0.60;;;;;;;8.47;100.00;90840.53;2108436;28;20496;-84
2024/02/09 06:24:35;;;;;;;1.33;0.52;;;;;;;8.33;100.00;90841.19;2111024;28;20023;-81
2024/02/09 06:25:36;;;;;;;1.55;0.63;;;;;;;8.29;100.00;90837.97;2110619;28;20023;-83
2024/02/09 06:26:37;;;;;;;1.35;0.70;;;;;;;8.18;100.00;90837.78;2102466;28;20697;-82
2024/02/09 06:27:38;;;;;;;1.58;0.77;;;;;;;8.29;100.00;90835.31;2110103;28;20377;-81
2024/02/09 06:28:40;;;;;;;1.45;1.02;;;;;;;8.20;100.00;90838.03;2102846;28;20047;-83
2024/02/09 06:29:41;;;;;;;2.17;2.00;;;;;;;8.41;100.00;90836.28;2102573;28;20093;-84
2024/02/09 06:30:43;;;;;;;1.15;0.70;;;;;;;8.31;100.00;90841.66;2110649;28;20139;-83
2024/02/09 06:31:45;;;;;;;1.05;0.73;;;;;;;8.08;100.00;90842.44;2094417;28;20071;-80
2024/02/09 06:32:46;;;;;;;1.17;0.82;;;;;;;8.22;100.00;90841.72;2094663;28;20385;-83
2024/02/09 06:33:49;;;;;;;1.60;1.42;;;;;;;8.44;100.00;90841.44;2109481;28;20027;-83
2024/02/09 06:34:53;;;;;;;1.17;0.90;;;;;;;8.40;100.00;90840.13;2107441;28;20034;-83
2024/02/09 06:35:54;;;;;;;1.40;1.25;;;;;;;8.35;100.00;90844.13;2107970;28;20404;-83
2024/02/09 06:36:56;;;;;;;1.48;1.00;;;;;;;8.31;100.00;90841.66;2100635;28;20910;-81
2024/02/09 06:37:58;;;;;;;1.35;0.98;;;;;;;8.21;100.00;90844.81;2093850;28;20043;-83
2024/02/09 06:38:59;;;;;;;2.35;1.20;;;;;;;8.24;100.00;90846.59;2094676;28;20039;-82
2024/02/09 06:40:00;;;;;;;1.42;1.00;;;;;;;8.36;100.00;90847.53;2094596;28;20019;-83